sensor_id;sensor_type;location;lat;lon;timestamp;temperature;humidity
20973;DHT22;10645;52.370;13.314;2023-07-20T00:01:48;16.00;99.90
20973;DHT22;10645;52.370;13.314;2023-07-20T00:04:14;16.00;99.90
20973;DHT22;10645;52.370;13.314;2023-07-20T00:06:40;15.90;99.90
20973;DHT22;10645;52.370;13.314;2023-07-20T00:09:07;15.90;99.90
20973;DHT22;10645;52.370;13.314;2023-07-20T00:11:36;15.90;99.90
20973;DHT22;10645;52.370;13.314;2023-07-20T00:14:04;15.90;99.90
20973;DHT22;10645;52.370;13.314;2023-07-20T00:16:31;15.90;99.90
20973;DHT22;10645;52.370;13.314;2023-07-20T00:18:57;15.90;99.90
20973;DHT22;10645;52.370;13.314;2023-07-20T00:21:23;15.90;99.90
20973;DHT22;10645;52.370;13.314;2023-07-20T00:23:49;15.90;99.90
20973;DHT22;10645;52.370;13.314;2023-07-20T00:26:15;15.80;99.90
20973;DHT22;10645;52.370;13.314;2023-07-20T00:28:41;15.80;99.90
20973;DHT22;10645;52.370;13.314;2023-07-20T00:31:07;15.80;99.90
20973;DHT22;10645;52.370;13.314;2023-07-20T00:33:33;15.70;99.90
20973;DHT22;10645;52.370;13.314;2023-07-20T00:35:59;15.70;99.90
20973;DHT22;10645;52.370;13.314;2023-07-20T00:38:25;15.70;99.90
20973;DHT22;10645;52.370;13.314;2023-07-20T00:40:51;15.70;99.90
20973;DHT22;10645;52.370;13.314;2023-07-20T00:43:18;15.70;99.90
20973;DHT22;10645;52.370;13.314;2023-07-20T00:45:45;15.70;99.90
20973;DHT22;10645;52.370;13.314;2023-07-20T00:48:12;15.60;99.90
20973;DHT22;10645;52.370;13.314;2023-07-20T00:50:39;15.60;99.90
20973;DHT22;10645;52.370;13.314;2023-07-20T00:53:06;15.70;99.90
20973;DHT22;10645;52.370;13.314;2023-07-20T00:55:33;15.60;99.90
20973;DHT22;10645;52.370;13.314;2023-07-20T00:58:00;15.60;99.90
20973;DHT22;10645;52.370;13.314;2023-07-20T01:00:26;15.60;99.90
20973;DHT22;10645;52.370;13.314;2023-07-20T01:02:53;15.60;99.90
20973;DHT22;10645;52.370;13.314;2023-07-20T01:05:21;15.60;99.90
20973;DHT22;10645;52.370;13.314;2023-07-20T01:07:57;15.50;99.90
20973;DHT22;10645;52.370;13.314;2023-07-20T01:11:02;15.50;99.90
20973;DHT22;10645;52.370;13.314;2023-07-20T01:13:30;15.50;99.90
20973;DHT22;10645;52.370;13.314;2023-07-20T01:25:34;15.40;99.90
20973;DHT22;10645;52.370;13.314;2023-07-20T01:28:19;15.30;99.90
20973;DHT22;10645;52.370;13.314;2023-07-20T01:30:56;15.30;99.90
20973;DHT22;10645;52.370;13.314;2023-07-20T01:33:32;15.30;99.90
20973;DHT22;10645;52.370;13.314;2023-07-20T01:36:01;15.30;99.90
20973;DHT22;10645;52.370;13.314;2023-07-20T01:38:29;15.30;99.90
20973;DHT22;10645;52.370;13.314;2023-07-20T01:40:55;15.20;99.90
20973;DHT22;10645;52.370;13.314;2023-07-20T01:43:22;15.20;99.90
20973;DHT22;10645;52.370;13.314;2023-07-20T01:45:49;15.20;99.90
20973;DHT22;10645;52.370;13.314;2023-07-20T01:48:15;15.20;99.90
20973;DHT22;10645;52.370;13.314;2023-07-20T01:50:41;15.20;99.90
20973;DHT22;10645;52.370;13.314;2023-07-20T01:53:08;15.20;99.90
20973;DHT22;10645;52.370;13.314;2023-07-20T01:55:34;15.20;99.90
20973;DHT22;10645;52.370;13.314;2023-07-20T01:58:00;15.20;99.90
20973;DHT22;10645;52.370;13.314;2023-07-20T02:00:27;15.30;99.90
20973;DHT22;10645;52.370;13.314;2023-07-20T02:02:53;15.20;99.90
20973;DHT22;10645;52.370;13.314;2023-07-20T02:05:19;15.30;99.90
20973;DHT22;10645;52.370;13.314;2023-07-20T02:07:45;15.30;99.90
20973;DHT22;10645;52.370;13.314;2023-07-20T02:10:12;15.20;99.90
20973;DHT22;10645;52.370;13.314;2023-07-20T02:12:38;15.20;99.90
20973;DHT22;10645;52.370;13.314;2023-07-20T02:15:04;15.10;99.90
20973;DHT22;10645;52.370;13.314;2023-07-20T02:17:30;15.10;99.90
20973;DHT22;10645;52.370;13.314;2023-07-20T02:19:57;15.00;99.90
20973;DHT22;10645;52.370;13.314;2023-07-20T02:22:26;15.00;99.90
20973;DHT22;10645;52.370;13.314;2023-07-20T02:24:52;14.90;99.90
20973;DHT22;10645;52.370;13.314;2023-07-20T02:27:18;14.90;99.90
20973;DHT22;10645;52.370;13.314;2023-07-20T02:29:44;14.90;99.90
20973;DHT22;10645;52.370;13.314;2023-07-20T02:32:11;14.80;99.90
20973;DHT22;10645;52.370;13.314;2023-07-20T02:34:37;14.80;99.90
20973;DHT22;10645;52.370;13.314;2023-07-20T02:37:03;14.80;99.90
20973;DHT22;10645;52.370;13.314;2023-07-20T02:39:30;14.80;99.90
20973;DHT22;10645;52.370;13.314;2023-07-20T02:41:56;14.80;99.90
20973;DHT22;10645;52.370;13.314;2023-07-20T02:44:22;14.80;99.90
20973;DHT22;10645;52.370;13.314;2023-07-20T02:46:49;14.80;99.90
20973;DHT22;10645;52.370;13.314;2023-07-20T02:49:18;14.80;99.90
20973;DHT22;10645;52.370;13.314;2023-07-20T02:51:44;14.70;99.90
20973;DHT22;10645;52.370;13.314;2023-07-20T02:54:10;14.70;99.90
20973;DHT22;10645;52.370;13.314;2023-07-20T02:56:36;14.70;99.90
20973;DHT22;10645;52.370;13.314;2023-07-20T02:59:02;14.70;99.90
20973;DHT22;10645;52.370;13.314;2023-07-20T03:01:28;14.60;99.90
20973;DHT22;10645;52.370;13.314;2023-07-20T03:03:57;14.60;99.90
20973;DHT22;10645;52.370;13.314;2023-07-20T03:06:24;14.60;99.90
20973;DHT22;10645;52.370;13.314;2023-07-20T03:08:50;14.60;99.90
20973;DHT22;10645;52.370;13.314;2023-07-20T03:11:18;14.60;99.90
20973;DHT22;10645;52.370;13.314;2023-07-20T03:13:45;14.70;99.90
20973;DHT22;10645;52.370;13.314;2023-07-20T03:16:13;14.80;99.90
20973;DHT22;10645;52.370;13.314;2023-07-20T03:18:42;14.80;99.90
20973;DHT22;10645;52.370;13.314;2023-07-20T03:21:09;14.90;99.90
20973;DHT22;10645;52.370;13.314;2023-07-20T03:23:38;14.90;99.90
20973;DHT22;10645;52.370;13.314;2023-07-20T03:26:04;15.00;99.90
20973;DHT22;10645;52.370;13.314;2023-07-20T03:28:31;15.00;99.90
20973;DHT22;10645;52.370;13.314;2023-07-20T03:30:57;15.10;99.90
20973;DHT22;10645;52.370;13.314;2023-07-20T03:33:26;15.10;99.90
20973;DHT22;10645;52.370;13.314;2023-07-20T03:35:54;15.10;99.90
20973;DHT22;10645;52.370;13.314;2023-07-20T03:38:20;15.20;99.90
20973;DHT22;10645;52.370;13.314;2023-07-20T03:40:57;15.20;99.90
20973;DHT22;10645;52.370;13.314;2023-07-20T03:43:25;15.30;99.90
20973;DHT22;10645;52.370;13.314;2023-07-20T03:45:52;15.30;99.90
20973;DHT22;10645;52.370;13.314;2023-07-20T03:48:20;15.30;99.90
20973;DHT22;10645;52.370;13.314;2023-07-20T03:50:48;15.40;99.90
20973;DHT22;10645;52.370;13.314;2023-07-20T03:53:15;15.40;99.90
20973;DHT22;10645;52.370;13.314;2023-07-20T03:55:45;15.50;99.90
20973;DHT22;10645;52.370;13.314;2023-07-20T03:58:12;15.50;99.90
20973;DHT22;10645;52.370;13.314;2023-07-20T04:00:39;15.50;99.90
20973;DHT22;10645;52.370;13.314;2023-07-20T04:03:06;15.50;99.90
20973;DHT22;10645;52.370;13.314;2023-07-20T04:05:32;15.50;99.90
20973;DHT22;10645;52.370;13.314;2023-07-20T04:07:58;15.50;99.90
20973;DHT22;10645;52.370;13.314;2023-07-20T04:10:24;15.60;99.90
20973;DHT22;10645;52.370;13.314;2023-07-20T04:12:52;15.60;99.90
20973;DHT22;10645;52.370;13.314;2023-07-20T04:15:18;15.50;99.90
20973;DHT22;10645;52.370;13.314;2023-07-20T04:17:45;15.60;99.90
20973;DHT22;10645;52.370;13.314;2023-07-20T04:20:11;15.60;99.90
20973;DHT22;10645;52.370;13.314;2023-07-20T04:22:37;15.60;99.90
20973;DHT22;10645;52.370;13.314;2023-07-20T04:25:05;15.60;99.90
20973;DHT22;10645;52.370;13.314;2023-07-20T04:27:31;15.60;99.90
20973;DHT22;10645;52.370;13.314;2023-07-20T04:29:58;15.60;99.90
20973;DHT22;10645;52.370;13.314;2023-07-20T04:32:25;15.60;99.90
20973;DHT22;10645;52.370;13.314;2023-07-20T04:34:52;15.60;99.90
20973;DHT22;10645;52.370;13.314;2023-07-20T04:37:19;15.60;99.90
20973;DHT22;10645;52.370;13.314;2023-07-20T04:39:46;15.60;99.90
20973;DHT22;10645;52.370;13.314;2023-07-20T04:42:13;15.60;99.90
20973;DHT22;10645;52.370;13.314;2023-07-20T04:44:39;15.70;99.90
20973;DHT22;10645;52.370;13.314;2023-07-20T04:47:06;15.70;99.90
20973;DHT22;10645;52.370;13.314;2023-07-20T04:49:35;15.70;99.90
20973;DHT22;10645;52.370;13.314;2023-07-20T04:52:02;15.70;99.90
20973;DHT22;10645;52.370;13.314;2023-07-20T04:54:28;15.70;99.90
20973;DHT22;10645;52.370;13.314;2023-07-20T04:56:54;15.80;99.90
20973;DHT22;10645;52.370;13.314;2023-07-20T04:59:21;15.80;99.90
20973;DHT22;10645;52.370;13.314;2023-07-20T05:01:47;15.80;99.90
20973;DHT22;10645;52.370;13.314;2023-07-20T05:04:15;15.90;99.90
20973;DHT22;10645;52.370;13.314;2023-07-20T05:06:41;16.00;99.90
20973;DHT22;10645;52.370;13.314;2023-07-20T05:09:08;16.00;99.90
20973;DHT22;10645;52.370;13.314;2023-07-20T05:11:34;16.00;99.90
20973;DHT22;10645;52.370;13.314;2023-07-20T05:14:00;16.10;99.90
20973;DHT22;10645;52.370;13.314;2023-07-20T05:16:27;16.10;99.90
20973;DHT22;10645;52.370;13.314;2023-07-20T05:18:55;16.10;99.90
20973;DHT22;10645;52.370;13.314;2023-07-20T05:21:23;16.20;99.90
20973;DHT22;10645;52.370;13.314;2023-07-20T05:23:49;16.20;99.90
20973;DHT22;10645;52.370;13.314;2023-07-20T05:26:15;16.20;99.90
20973;DHT22;10645;52.370;13.314;2023-07-20T05:28:41;16.30;99.90
20973;DHT22;10645;52.370;13.314;2023-07-20T05:31:07;16.30;99.90
20973;DHT22;10645;52.370;13.314;2023-07-20T05:33:33;16.30;99.90
20973;DHT22;10645;52.370;13.314;2023-07-20T05:36:00;16.40;99.90
20973;DHT22;10645;52.370;13.314;2023-07-20T05:38:26;16.50;99.90
20973;DHT22;10645;52.370;13.314;2023-07-20T05:40:52;16.50;99.90
20973;DHT22;10645;52.370;13.314;2023-07-20T05:43:18;16.70;99.90
20973;DHT22;10645;52.370;13.314;2023-07-20T05:45:44;16.70;99.90
20973;DHT22;10645;52.370;13.314;2023-07-20T05:48:11;16.70;99.90
20973;DHT22;10645;52.370;13.314;2023-07-20T05:50:41;16.60;99.90
20973;DHT22;10645;52.370;13.314;2023-07-20T05:53:07;16.70;99.90
20973;DHT22;10645;52.370;13.314;2023-07-20T05:55:33;16.70;99.90
20973;DHT22;10645;52.370;13.314;2023-07-20T05:57:59;16.80;99.90
20973;DHT22;10645;52.370;13.314;2023-07-20T06:00:25;16.80;99.90
20973;DHT22;10645;52.370;13.314;2023-07-20T06:02:53;16.90;99.90
20973;DHT22;10645;52.370;13.314;2023-07-20T06:05:19;16.90;99.90
20973;DHT22;10645;52.370;13.314;2023-07-20T06:07:47;17.00;99.90
20973;DHT22;10645;52.370;13.314;2023-07-20T06:10:13;17.10;99.90
20973;DHT22;10645;52.370;13.314;2023-07-20T06:12:39;17.10;99.90
20973;DHT22;10645;52.370;13.314;2023-07-20T06:15:05;17.20;99.90
20973;DHT22;10645;52.370;13.314;2023-07-20T06:17:32;17.40;99.90
20973;DHT22;10645;52.370;13.314;2023-07-20T06:20:12;17.60;99.90
20973;DHT22;10645;52.370;13.314;2023-07-20T06:22:38;17.80;99.90
20973;DHT22;10645;52.370;13.314;2023-07-20T06:25:05;17.80;99.90
20973;DHT22;10645;52.370;13.314;2023-07-20T06:27:31;17.80;99.90
20973;DHT22;10645;52.370;13.314;2023-07-20T06:29:57;17.70;99.90
20973;DHT22;10645;52.370;13.314;2023-07-20T06:32:23;17.60;99.90
20973;DHT22;10645;52.370;13.314;2023-07-20T06:34:49;17.50;99.90
20973;DHT22;10645;52.370;13.314;2023-07-20T06:37:15;17.40;99.90
20973;DHT22;10645;52.370;13.314;2023-07-20T06:39:41;17.40;99.90
20973;DHT22;10645;52.370;13.314;2023-07-20T06:42:07;17.30;99.90
20973;DHT22;10645;52.370;13.314;2023-07-20T06:44:33;17.30;99.90
20973;DHT22;10645;52.370;13.314;2023-07-20T06:47:00;17.40;99.90
20973;DHT22;10645;52.370;13.314;2023-07-20T06:49:27;17.40;99.90
20973;DHT22;10645;52.370;13.314;2023-07-20T06:51:53;17.30;99.90
20973;DHT22;10645;52.370;13.314;2023-07-20T06:54:19;17.50;99.90
20973;DHT22;10645;52.370;13.314;2023-07-20T06:56:45;17.50;99.90
20973;DHT22;10645;52.370;13.314;2023-07-20T06:59:11;17.60;99.90
20973;DHT22;10645;52.370;13.314;2023-07-20T07:01:37;17.50;99.90
20973;DHT22;10645;52.370;13.314;2023-07-20T07:04:04;17.50;99.90
20973;DHT22;10645;52.370;13.314;2023-07-20T07:06:31;17.60;99.90
20973;DHT22;10645;52.370;13.314;2023-07-20T07:08:58;17.40;99.90
20973;DHT22;10645;52.370;13.314;2023-07-20T07:11:24;17.30;99.90
20973;DHT22;10645;52.370;13.314;2023-07-20T07:13:50;17.20;99.90
20973;DHT22;10645;52.370;13.314;2023-07-20T07:16:17;17.30;99.90
20973;DHT22;10645;52.370;13.314;2023-07-20T07:18:46;17.60;99.90
20973;DHT22;10645;52.370;13.314;2023-07-20T07:21:12;18.00;99.90
20973;DHT22;10645;52.370;13.314;2023-07-20T07:23:39;18.50;99.90
20973;DHT22;10645;52.370;13.314;2023-07-20T07:26:05;18.70;99.90
20973;DHT22;10645;52.370;13.314;2023-07-20T07:28:31;19.00;99.90
20973;DHT22;10645;52.370;13.314;2023-07-20T07:31:00;19.00;99.90
20973;DHT22;10645;52.370;13.314;2023-07-20T07:33:26;19.00;99.90
20973;DHT22;10645;52.370;13.314;2023-07-20T07:35:52;19.00;99.90
20973;DHT22;10645;52.370;13.314;2023-07-20T07:38:19;18.90;99.90
20973;DHT22;10645;52.370;13.314;2023-07-20T07:40:45;19.00;99.90
20973;DHT22;10645;52.370;13.314;2023-07-20T07:43:12;19.10;99.90
20973;DHT22;10645;52.370;13.314;2023-07-20T07:45:41;19.30;99.90
20973;DHT22;10645;52.370;13.314;2023-07-20T07:48:08;19.20;99.90
20973;DHT22;10645;52.370;13.314;2023-07-20T07:50:37;19.20;99.90
20973;DHT22;10645;52.370;13.314;2023-07-20T07:53:04;19.40;99.90
20973;DHT22;10645;52.370;13.314;2023-07-20T07:55:30;19.40;99.90
20973;DHT22;10645;52.370;13.314;2023-07-20T07:57:56;19.40;99.90
20973;DHT22;10645;52.370;13.314;2023-07-20T08:00:22;19.50;99.90
20973;DHT22;10645;52.370;13.314;2023-07-20T08:02:50;19.60;99.90
20973;DHT22;10645;52.370;13.314;2023-07-20T08:05:16;19.60;99.90
20973;DHT22;10645;52.370;13.314;2023-07-20T08:07:43;19.80;99.90
20973;DHT22;10645;52.370;13.314;2023-07-20T08:10:09;19.80;99.90
20973;DHT22;10645;52.370;13.314;2023-07-20T08:12:35;20.00;99.90
20973;DHT22;10645;52.370;13.314;2023-07-20T08:15:01;20.00;99.90
20973;DHT22;10645;52.370;13.314;2023-07-20T08:17:27;19.90;99.90
20973;DHT22;10645;52.370;13.314;2023-07-20T08:19:54;19.80;99.90
20973;DHT22;10645;52.370;13.314;2023-07-20T08:22:20;19.80;99.90
20973;DHT22;10645;52.370;13.314;2023-07-20T08:24:46;19.60;99.90
20973;DHT22;10645;52.370;13.314;2023-07-20T08:27:12;19.90;99.90
20973;DHT22;10645;52.370;13.314;2023-07-20T08:29:38;19.80;99.90
20973;DHT22;10645;52.370;13.314;2023-07-20T08:32:05;19.70;99.90
20973;DHT22;10645;52.370;13.314;2023-07-20T08:34:32;19.50;99.90
20973;DHT22;10645;52.370;13.314;2023-07-20T08:36:58;19.60;99.90
20973;DHT22;10645;52.370;13.314;2023-07-20T08:39:24;19.50;99.90
20973;DHT22;10645;52.370;13.314;2023-07-20T08:41:51;19.70;99.90
20973;DHT22;10645;52.370;13.314;2023-07-20T08:44:18;19.70;99.90
20973;DHT22;10645;52.370;13.314;2023-07-20T08:46:44;19.80;99.90
20973;DHT22;10645;52.370;13.314;2023-07-20T08:49:11;19.80;99.90
20973;DHT22;10645;52.370;13.314;2023-07-20T08:51:38;20.10;99.90
20973;DHT22;10645;52.370;13.314;2023-07-20T08:54:04;20.50;99.90
20973;DHT22;10645;52.370;13.314;2023-07-20T08:56:33;20.60;99.90
20973;DHT22;10645;52.370;13.314;2023-07-20T08:59:01;20.50;99.90
20973;DHT22;10645;52.370;13.314;2023-07-20T09:01:28;20.40;99.90
20973;DHT22;10645;52.370;13.314;2023-07-20T09:03:55;20.40;99.90
20973;DHT22;10645;52.370;13.314;2023-07-20T09:06:22;20.70;99.90
20973;DHT22;10645;52.370;13.314;2023-07-20T09:08:48;21.40;99.90
20973;DHT22;10645;52.370;13.314;2023-07-20T09:11:14;21.80;99.90
20973;DHT22;10645;52.370;13.314;2023-07-20T09:13:41;21.70;99.90
20973;DHT22;10645;52.370;13.314;2023-07-20T09:16:07;21.20;99.90
20973;DHT22;10645;52.370;13.314;2023-07-20T09:18:33;21.00;99.90
20973;DHT22;10645;52.370;13.314;2023-07-20T09:21:04;20.90;99.90
20973;DHT22;10645;52.370;13.314;2023-07-20T09:23:38;20.70;99.90
20973;DHT22;10645;52.370;13.314;2023-07-20T09:26:11;20.30;99.90
20973;DHT22;10645;52.370;13.314;2023-07-20T09:28:52;20.30;99.90
20973;DHT22;10645;52.370;13.314;2023-07-20T09:31:21;20.50;99.90
20973;DHT22;10645;52.370;13.314;2023-07-20T09:33:48;20.90;99.90
20973;DHT22;10645;52.370;13.314;2023-07-20T09:36:15;21.10;99.90
20973;DHT22;10645;52.370;13.314;2023-07-20T09:38:41;21.20;99.90
20973;DHT22;10645;52.370;13.314;2023-07-20T09:41:14;21.70;99.90
20973;DHT22;10645;52.370;13.314;2023-07-20T09:43:45;22.30;99.90
20973;DHT22;10645;52.370;13.314;2023-07-20T09:46:11;22.30;99.90
20973;DHT22;10645;52.370;13.314;2023-07-20T09:48:38;22.50;99.90
20973;DHT22;10645;52.370;13.314;2023-07-20T09:51:04;22.40;99.90
20973;DHT22;10645;52.370;13.314;2023-07-20T09:53:33;22.30;99.90
20973;DHT22;10645;52.370;13.314;2023-07-20T09:56:00;22.20;99.90
20973;DHT22;10645;52.370;13.314;2023-07-20T09:58:26;21.90;99.90
20973;DHT22;10645;52.370;13.314;2023-07-20T10:00:57;21.90;99.90
20973;DHT22;10645;52.370;13.314;2023-07-20T10:03:28;22.10;99.90
20973;DHT22;10645;52.370;13.314;2023-07-20T10:06:02;22.20;99.90
20973;DHT22;10645;52.370;13.314;2023-07-20T10:08:32;22.20;99.90
20973;DHT22;10645;52.370;13.314;2023-07-20T10:11:00;22.20;99.90
20973;DHT22;10645;52.370;13.314;2023-07-20T10:13:29;22.20;99.90
20973;DHT22;10645;52.370;13.314;2023-07-20T10:16:01;22.00;99.90
20973;DHT22;10645;52.370;13.314;2023-07-20T10:18:31;21.70;99.90
20973;DHT22;10645;52.370;13.314;2023-07-20T10:20:59;21.60;99.90
20973;DHT22;10645;52.370;13.314;2023-07-20T10:23:28;21.60;99.90
20973;DHT22;10645;52.370;13.314;2023-07-20T10:25:56;21.70;99.90
20973;DHT22;10645;52.370;13.314;2023-07-20T10:28:22;21.70;99.90
20973;DHT22;10645;52.370;13.314;2023-07-20T10:30:49;21.80;99.90
20973;DHT22;10645;52.370;13.314;2023-07-20T10:33:17;21.80;99.90
20973;DHT22;10645;52.370;13.314;2023-07-20T10:35:54;22.10;99.90
20973;DHT22;10645;52.370;13.314;2023-07-20T10:38:41;21.90;99.90
20973;DHT22;10645;52.370;13.314;2023-07-20T10:41:22;22.30;99.90
20973;DHT22;10645;52.370;13.314;2023-07-20T10:43:58;22.80;99.90
20973;DHT22;10645;52.370;13.314;2023-07-20T10:46:42;23.50;99.90
20973;DHT22;10645;52.370;13.314;2023-07-20T10:49:09;23.60;99.90
20973;DHT22;10645;52.370;13.314;2023-07-20T10:51:42;23.10;99.30
20973;DHT22;10645;52.370;13.314;2023-07-20T10:56:43;22.60;99.90
20973;DHT22;10645;52.370;13.314;2023-07-20T10:59:20;22.40;99.90
20973;DHT22;10645;52.370;13.314;2023-07-20T11:01:47;22.20;99.90
20973;DHT22;10645;52.370;13.314;2023-07-20T11:04:16;21.70;99.90
20973;DHT22;10645;52.370;13.314;2023-07-20T11:06:45;21.20;99.90
20973;DHT22;10645;52.370;13.314;2023-07-20T11:09:13;20.80;99.90
20973;DHT22;10645;52.370;13.314;2023-07-20T11:11:47;20.50;99.90
20973;DHT22;10645;52.370;13.314;2023-07-20T11:14:26;20.00;99.90
20973;DHT22;10645;52.370;13.314;2023-07-20T11:16:53;19.90;99.90
20973;DHT22;10645;52.370;13.314;2023-07-20T11:19:21;19.70;99.90
20973;DHT22;10645;52.370;13.314;2023-07-20T11:21:53;19.40;99.90
20973;DHT22;10645;52.370;13.314;2023-07-20T11:24:20;19.20;99.90
20973;DHT22;10645;52.370;13.314;2023-07-20T11:26:50;19.20;99.90
20973;DHT22;10645;52.370;13.314;2023-07-20T11:29:18;19.30;99.90
20973;DHT22;10645;52.370;13.314;2023-07-20T11:31:45;19.30;99.90
20973;DHT22;10645;52.370;13.314;2023-07-20T11:34:13;19.30;99.90
20973;DHT22;10645;52.370;13.314;2023-07-20T11:36:41;19.40;99.90
20973;DHT22;10645;52.370;13.314;2023-07-20T11:39:09;19.40;99.90
20973;DHT22;10645;52.370;13.314;2023-07-20T11:41:36;19.80;99.90
20973;DHT22;10645;52.370;13.314;2023-07-20T11:44:02;20.30;99.90
20973;DHT22;10645;52.370;13.314;2023-07-20T11:46:28;20.70;99.90
20973;DHT22;10645;52.370;13.314;2023-07-20T11:48:57;20.80;99.90
20973;DHT22;10645;52.370;13.314;2023-07-20T11:51:24;20.80;99.90
20973;DHT22;10645;52.370;13.314;2023-07-20T11:53:50;20.60;99.90
20973;DHT22;10645;52.370;13.314;2023-07-20T11:56:16;20.90;99.90
20973;DHT22;10645;52.370;13.314;2023-07-20T11:58:46;21.10;99.90
20973;DHT22;10645;52.370;13.314;2023-07-20T12:01:13;21.10;99.90
20973;DHT22;10645;52.370;13.314;2023-07-20T12:03:39;21.00;99.90
20973;DHT22;10645;52.370;13.314;2023-07-20T12:06:13;21.30;99.90
20973;DHT22;10645;52.370;13.314;2023-07-20T12:08:41;21.60;99.90
20973;DHT22;10645;52.370;13.314;2023-07-20T12:11:08;22.00;99.90
20973;DHT22;10645;52.370;13.314;2023-07-20T12:13:44;22.30;99.90
20973;DHT22;10645;52.370;13.314;2023-07-20T12:16:11;22.60;99.90
20973;DHT22;10645;52.370;13.314;2023-07-20T12:18:38;22.30;99.90
20973;DHT22;10645;52.370;13.314;2023-07-20T12:21:06;22.10;99.90
20973;DHT22;10645;52.370;13.314;2023-07-20T12:23:39;21.70;99.90
20973;DHT22;10645;52.370;13.314;2023-07-20T12:26:07;21.40;99.90
20973;DHT22;10645;52.370;13.314;2023-07-20T12:28:38;21.30;99.90
20973;DHT22;10645;52.370;13.314;2023-07-20T12:31:05;21.20;99.90
20973;DHT22;10645;52.370;13.314;2023-07-20T12:33:32;21.40;99.90
20973;DHT22;10645;52.370;13.314;2023-07-20T12:35:59;21.60;99.90
20973;DHT22;10645;52.370;13.314;2023-07-20T12:38:25;21.90;99.90
20973;DHT22;10645;52.370;13.314;2023-07-20T12:40:53;21.90;99.90
20973;DHT22;10645;52.370;13.314;2023-07-20T12:43:22;22.10;99.90
20973;DHT22;10645;52.370;13.314;2023-07-20T12:45:49;22.00;99.90
20973;DHT22;10645;52.370;13.314;2023-07-20T12:48:15;22.10;99.90
20973;DHT22;10645;52.370;13.314;2023-07-20T12:50:41;22.30;99.90
20973;DHT22;10645;52.370;13.314;2023-07-20T12:53:07;22.30;99.90
20973;DHT22;10645;52.370;13.314;2023-07-20T12:55:33;22.30;99.90
20973;DHT22;10645;52.370;13.314;2023-07-20T12:57:59;21.90;99.90
20973;DHT22;10645;52.370;13.314;2023-07-20T13:00:25;21.70;99.90
20973;DHT22;10645;52.370;13.314;2023-07-20T13:02:52;21.90;99.90
20973;DHT22;10645;52.370;13.314;2023-07-20T13:05:18;22.20;99.90
20973;DHT22;10645;52.370;13.314;2023-07-20T13:07:44;22.50;99.90
20973;DHT22;10645;52.370;13.314;2023-07-20T13:10:11;22.80;99.90
20973;DHT22;10645;52.370;13.314;2023-07-20T13:12:37;22.90;99.90
20973;DHT22;10645;52.370;13.314;2023-07-20T13:15:05;22.70;99.90
20973;DHT22;10645;52.370;13.314;2023-07-20T13:17:35;22.40;99.90
20973;DHT22;10645;52.370;13.314;2023-07-20T13:20:03;22.20;99.90
20973;DHT22;10645;52.370;13.314;2023-07-20T13:22:30;22.20;99.90
20973;DHT22;10645;52.370;13.314;2023-07-20T13:24:56;22.40;99.90
20973;DHT22;10645;52.370;13.314;2023-07-20T13:27:22;22.60;99.90
20973;DHT22;10645;52.370;13.314;2023-07-20T13:29:48;22.40;99.10
20973;DHT22;10645;52.370;13.314;2023-07-20T13:32:15;22.10;97.60
20973;DHT22;10645;52.370;13.314;2023-07-20T13:34:42;22.40;99.90
20973;DHT22;10645;52.370;13.314;2023-07-20T13:37:08;22.60;97.10
20973;DHT22;10645;52.370;13.314;2023-07-20T13:39:34;22.90;97.60
20973;DHT22;10645;52.370;13.314;2023-07-20T13:42:00;23.20;97.40
20973;DHT22;10645;52.370;13.314;2023-07-20T13:44:29;23.40;96.50
20973;DHT22;10645;52.370;13.314;2023-07-20T13:46:55;23.50;95.80
20973;DHT22;10645;52.370;13.314;2023-07-20T13:49:22;23.20;95.20
20973;DHT22;10645;52.370;13.314;2023-07-20T13:51:48;23.40;96.00
20973;DHT22;10645;52.370;13.314;2023-07-20T13:54:14;23.70;95.80
20973;DHT22;10645;52.370;13.314;2023-07-20T13:56:41;24.00;95.30
20973;DHT22;10645;52.370;13.314;2023-07-20T13:59:07;24.30;94.30
20973;DHT22;10645;52.370;13.314;2023-07-20T14:01:33;24.60;95.00
20973;DHT22;10645;52.370;13.314;2023-07-20T14:04:00;24.30;94.50
20973;DHT22;10645;52.370;13.314;2023-07-20T14:06:30;24.20;94.10
20973;DHT22;10645;52.370;13.314;2023-07-20T14:08:56;23.80;92.70
20973;DHT22;10645;52.370;13.314;2023-07-20T14:11:23;23.60;93.60
20973;DHT22;10645;52.370;13.314;2023-07-20T14:13:53;23.70;93.90
20973;DHT22;10645;52.370;13.314;2023-07-20T14:16:23;23.90;92.90
20973;DHT22;10645;52.370;13.314;2023-07-20T14:18:49;24.20;93.90
20973;DHT22;10645;52.370;13.314;2023-07-20T14:21:16;24.30;90.70
20973;DHT22;10645;52.370;13.314;2023-07-20T14:23:45;24.30;91.00
20973;DHT22;10645;52.370;13.314;2023-07-20T14:26:12;24.00;90.40
20973;DHT22;10645;52.370;13.314;2023-07-20T14:28:38;23.50;90.20
20973;DHT22;10645;52.370;13.314;2023-07-20T14:31:04;23.40;91.50
20973;DHT22;10645;52.370;13.314;2023-07-20T14:33:31;23.40;91.10
20973;DHT22;10645;52.370;13.314;2023-07-20T14:35:57;23.40;92.40
20973;DHT22;10645;52.370;13.314;2023-07-20T14:38:23;23.50;92.00
20973;DHT22;10645;52.370;13.314;2023-07-20T14:40:49;23.80;91.70
20973;DHT22;10645;52.370;13.314;2023-07-20T14:43:16;24.10;91.90
20973;DHT22;10645;52.370;13.314;2023-07-20T14:45:42;24.30;90.80
20973;DHT22;10645;52.370;13.314;2023-07-20T14:48:08;24.40;87.20
20973;DHT22;10645;52.370;13.314;2023-07-20T14:50:35;24.60;85.20
20973;DHT22;10645;52.370;13.314;2023-07-20T14:53:01;24.50;85.60
20973;DHT22;10645;52.370;13.314;2023-07-20T14:55:27;24.40;86.70
20973;DHT22;10645;52.370;13.314;2023-07-20T14:57:53;24.80;86.10
20973;DHT22;10645;52.370;13.314;2023-07-20T15:00:19;24.80;83.50
20973;DHT22;10645;52.370;13.314;2023-07-20T15:02:45;24.70;85.60
20973;DHT22;10645;52.370;13.314;2023-07-20T15:05:11;24.50;85.40
20973;DHT22;10645;52.370;13.314;2023-07-20T15:07:37;24.40;85.50
20973;DHT22;10645;52.370;13.314;2023-07-20T15:10:04;24.50;85.20
20973;DHT22;10645;52.370;13.314;2023-07-20T15:12:31;24.40;82.80
20973;DHT22;10645;52.370;13.314;2023-07-20T15:17:30;23.70;84.10
20973;DHT22;10645;52.370;13.314;2023-07-20T15:19:56;23.50;87.30
20973;DHT22;10645;52.370;13.314;2023-07-20T15:22:23;23.20;87.20
20973;DHT22;10645;52.370;13.314;2023-07-20T15:24:49;23.40;86.30
20973;DHT22;10645;52.370;13.314;2023-07-20T15:27:15;23.60;87.20
20973;DHT22;10645;52.370;13.314;2023-07-20T15:29:41;23.60;88.80
20973;DHT22;10645;52.370;13.314;2023-07-20T15:32:07;23.20;89.10